createdAt,value
2023-05-05T00:00:09.131Z,100287.91
2023-05-05T00:02:36.457Z,100293.22
2023-05-05T00:05:04.046Z,100301.22
2023-05-05T00:07:30.975Z,100304.78
2023-05-05T00:09:57.896Z,100319.91
2023-05-05T00:12:24.841Z,100334.03
2023-05-05T00:14:51.799Z,100329.66
2023-05-05T00:17:19.039Z,100334.97
2023-05-05T00:19:46.048Z,100342.88
2023-05-05T00:22:15.902Z,100334.03
2023-05-05T00:24:42.937Z,100336.69
2023-05-05T00:27:10.754Z,100341.03
2023-05-05T00:29:37.780Z,100347.06
2023-05-05T00:32:04.945Z,100340.19
2023-05-05T00:34:32.296Z,100341.13
2023-05-05T00:36:59.284Z,100366.91
2023-05-05T00:39:26.319Z,100390.78
2023-05-05T00:41:53.270Z,100387.25
2023-05-05T00:44:40.499Z,100384.53
2023-05-05T00:47:09.633Z,100370.38
2023-05-05T00:49:37.054Z,100357.06
2023-05-05T00:52:05.479Z,100360.75
2023-05-05T00:54:36.720Z,100374.84
2023-05-05T00:57:04.213Z,100367.84
2023-05-05T00:59:33.332Z,100378.47
2023-05-05T01:02:00.610Z,100372.19
2023-05-05T01:04:28.061Z,100357.09
2023-05-05T01:07:14.422Z,100357.13
2023-05-05T01:10:20.985Z,100365.31
2023-05-05T01:13:16.641Z,100373.41
2023-05-05T01:16:02.694Z,100388.44
2023-05-05T01:19:03.561Z,100384.88
2023-05-05T01:21:55.333Z,100385.75
2023-05-05T01:24:34.410Z,100386.59
2023-05-05T01:27:34.389Z,100378.56
2023-05-05T01:30:29.695Z,100369.72
2023-05-05T01:33:06.712Z,100367.00
2023-05-05T01:35:41.731Z,100364.44
2023-05-05T01:38:17.433Z,100357.38
2023-05-05T01:40:50.194Z,100349.41
2023-05-05T01:43:21.327Z,100360.97
2023-05-05T01:45:49.799Z,100371.63
2023-05-05T01:48:19.844Z,100374.28
2023-05-05T01:50:48.656Z,100386.63
2023-05-05T01:53:17.646Z,100391.97
2023-05-05T01:55:46.327Z,100387.59
2023-05-05T01:58:16.322Z,100400.84
2023-05-05T02:00:44.669Z,100408.84
2023-05-05T02:03:14.590Z,100408.88
2023-05-05T02:05:43.935Z,100414.19
2023-05-05T02:08:12.315Z,100417.69
2023-05-05T02:10:41.051Z,100434.59
2023-05-05T02:15:38.697Z,100449.59
2023-05-05T02:18:07.793Z,100451.34
2023-05-05T02:20:38.805Z,100471.78
2023-05-05T02:23:08.012Z,100469.09
2023-05-05T02:25:46.185Z,100469.97
2023-05-05T02:28:33.761Z,100471.75
2023-05-05T02:31:02.542Z,100494.84
2023-05-05T02:33:33.536Z,100503.69
2023-05-05T02:36:12.909Z,100521.38
2023-05-05T02:38:43.944Z,100519.63
2023-05-05T02:41:17.029Z,100530.25
2023-05-05T02:43:46.779Z,100533.75
2023-05-05T02:46:13.772Z,100547.03
2023-05-05T02:48:40.816Z,100553.19
2023-05-05T02:51:07.884Z,100566.50
2023-05-05T02:53:35.183Z,100568.22
2023-05-05T02:56:41.197Z,100582.38
2023-05-05T02:59:41.913Z,100585.03
2023-05-05T03:02:19.870Z,100593.91
2023-05-05T03:04:58.080Z,100596.53
2023-05-05T03:07:55.995Z,100608.91
2023-05-05T03:10:31.121Z,100616.88
2023-05-05T03:13:02.995Z,100626.59
2023-05-05T03:15:45.303Z,100662.16
2023-05-05T03:18:15.686Z,100658.66
2023-05-05T03:20:43.588Z,100652.44
2023-05-05T03:23:13.228Z,100645.34
2023-05-05T03:25:44.700Z,100647.09
2023-05-05T03:28:11.816Z,100689.66
2023-05-05T03:30:39.089Z,100710.03
2023-05-05T03:33:06.171Z,100689.63
2023-05-05T03:35:33.477Z,100672.75
2023-05-05T03:38:00.571Z,100658.50
2023-05-05T03:40:40.408Z,100629.28
2023-05-05T03:43:10.696Z,100602.81
2023-05-05T03:45:37.769Z,100601.06
2023-05-05T03:48:05.426Z,100619.66
2023-05-05T03:50:32.478Z,100631.13
2023-05-05T03:52:59.506Z,100634.66
2023-05-05T03:55:26.486Z,100642.63
2023-05-05T03:57:53.495Z,100648.81
2023-05-05T04:00:20.646Z,100674.53
2023-05-05T04:02:47.742Z,100673.59
2023-05-05T04:05:14.913Z,100701.91
2023-05-05T04:07:41.919Z,100701.94
2023-05-05T04:10:09.414Z,100709.00
2023-05-05T04:12:36.551Z,100712.56
2023-05-05T04:15:03.802Z,100821.66
2023-05-05T04:17:30.820Z,100730.63
2023-05-05T04:19:57.917Z,100684.56
2023-05-05T04:22:24.941Z,100592.88
2023-05-05T04:24:52.024Z,100544.22
2023-05-05T04:27:22.316Z,100522.94
2023-05-05T04:29:49.285Z,100493.59
2023-05-05T04:32:16.308Z,100504.00
2023-05-05T04:34:43.557Z,100542.22
2023-05-05T04:37:10.548Z,100554.69
2023-05-05T04:39:38.007Z,100564.41
2023-05-05T04:42:05.194Z,100592.81
2023-05-05T04:44:32.539Z,100605.19
2023-05-05T04:47:01.304Z,100613.03
2023-05-05T04:49:31.876Z,100624.59
2023-05-05T04:51:58.892Z,100633.28
2023-05-05T04:54:26.065Z,100637.72
2023-05-05T04:56:53.376Z,100642.88
2023-05-05T04:59:20.438Z,100626.91
2023-05-05T05:01:47.508Z,100627.81
2023-05-05T05:04:18.629Z,100634.91
2023-05-05T05:06:46.388Z,100664.75
2023-05-05T05:09:13.688Z,100655.09
2023-05-05T05:11:41.111Z,100656.94
2023-05-05T05:14:11.129Z,100665.97
2023-05-05T05:16:38.338Z,100681.97
2023-05-05T05:19:05.409Z,100695.28
2023-05-05T05:21:32.427Z,100706.78
2023-05-05T05:23:59.405Z,100715.63
2023-05-05T05:26:26.609Z,100723.53
2023-05-05T05:28:53.582Z,100731.44
2023-05-05T05:31:20.619Z,100732.22
2023-05-05T05:33:47.607Z,100731.28
2023-05-05T05:36:14.613Z,100738.47
2023-05-05T05:38:41.525Z,100741.16
2023-05-05T05:41:08.549Z,100735.06
2023-05-05T05:43:35.627Z,100743.06
2023-05-05T05:46:02.647Z,100723.53
2023-05-05T05:48:29.756Z,100737.72
2023-05-05T05:50:57.138Z,100753.66
2023-05-05T05:53:24.050Z,100757.22
2023-05-05T05:55:51.122Z,100775.88
2023-05-05T05:58:18.489Z,100779.50
2023-05-05T06:00:45.678Z,100776.81
2023-05-05T06:03:12.789Z,100791.88
2023-05-05T06:05:40.009Z,100789.19
2023-05-05T06:08:07.327Z,100797.94
2023-05-05T06:10:34.535Z,100803.16
2023-05-05T06:13:01.762Z,100798.59
2023-05-05T06:15:28.872Z,100801.16
2023-05-05T06:17:55.865Z,100788.66
2023-05-05T06:20:23.016Z,100782.16
2023-05-05T06:22:50.048Z,100775.81
2023-05-05T06:25:17.348Z,100772.94
2023-05-05T06:27:44.347Z,100775.53
2023-05-05T06:30:12.152Z,100772.69
2023-05-05T06:32:39.111Z,100757.56
2023-05-05T06:35:07.312Z,100760.00
2023-05-05T06:37:34.263Z,100746.41
2023-05-05T06:40:01.273Z,100732.19
2023-05-05T06:42:28.334Z,100714.56
2023-05-05T06:44:55.504Z,100699.34
2023-05-05T06:47:22.679Z,100694.00
2023-05-05T06:49:49.708Z,100664.47
2023-05-05T06:52:16.658Z,100645.72
2023-05-05T06:54:44.265Z,100627.84
2023-05-05T06:57:11.207Z,100647.66
2023-05-05T06:59:38.436Z,100628.97
2023-05-05T07:02:06.130Z,100630.41
2023-05-05T07:04:33.035Z,100629.50
2023-05-05T07:07:00.082Z,100624.00
2023-05-05T07:09:27.100Z,100633.78
2023-05-05T07:11:54.076Z,100639.78
2023-05-05T07:14:23.609Z,100638.88
2023-05-05T07:16:51.556Z,100633.56
2023-05-05T07:19:18.756Z,100627.47
2023-05-05T07:21:47.281Z,100629.31
2023-05-05T07:24:14.226Z,100635.50
2023-05-05T07:26:41.234Z,100643.50
2023-05-05T07:29:08.227Z,100646.22
2023-05-05T07:31:36.464Z,100653.22
2023-05-05T07:34:03.586Z,100667.09
2023-05-05T07:36:30.603Z,100651.56
2023-05-05T07:38:57.753Z,100628.34
2023-05-05T07:41:24.748Z,100629.81
2023-05-05T07:43:51.812Z,100619.59
2023-05-05T07:46:18.994Z,100617.47
2023-05-05T07:48:45.985Z,100614.38
2023-05-05T07:51:13.021Z,100602.97
2023-05-05T07:53:41.501Z,100579.00
2023-05-05T07:56:09.059Z,100537.44
2023-05-05T07:58:36.291Z,100530.91
2023-05-05T08:01:05.875Z,100524.72
2023-05-05T08:03:33.072Z,100507.00
2023-05-05T08:06:11.345Z,100478.47
2023-05-05T08:08:38.676Z,100475.94
2023-05-05T08:11:08.798Z,100461.94
2023-05-05T08:13:35.859Z,100409.50
2023-05-05T08:16:03.037Z,100420.53
2023-05-05T08:18:30.088Z,100378.28
2023-05-05T08:20:57.264Z,100382.53
2023-05-05T08:23:24.223Z,100358.41
2023-05-05T08:25:51.307Z,100325.19
2023-05-05T08:28:18.787Z,100307.16
2023-05-05T08:30:45.845Z,100305.75
2023-05-05T08:33:12.900Z,100271.75
2023-05-05T08:35:39.926Z,100229.88
2023-05-05T08:38:06.885Z,100246.25
2023-05-05T08:40:35.033Z,100155.63
2023-05-05T08:43:02.519Z,100081.19
2023-05-05T08:45:30.554Z,100089.03
2023-05-05T08:48:01.462Z,100047.19
2023-05-05T08:50:29.858Z,99984.59
2023-05-05T08:53:16.613Z,100003.75
2023-05-05T08:55:53.315Z,99857.34
2023-05-05T08:58:21.373Z,99938.72
2023-05-05T09:00:48.688Z,99825.38
2023-05-05T09:03:17.056Z,99798.91
2023-05-05T09:05:44.938Z,99894.19
2023-05-05T09:08:12.222Z,99829.97
2023-05-05T09:10:43.096Z,99794.09
2023-05-05T09:13:10.104Z,99842.94
2023-05-05T09:15:39.052Z,99787.63
2023-05-05T09:18:12.057Z,99700.38
2023-05-05T09:20:40.975Z,99736.75
2023-05-05T09:23:16.156Z,99693.66
2023-05-05T09:25:46.493Z,99781.94
2023-05-05T09:28:18.164Z,99695.16
2023-05-05T09:30:52.880Z,99686.34
2023-05-05T09:33:37.876Z,99665.03
2023-05-05T09:36:05.533Z,99603.50
2023-05-05T09:38:32.517Z,99562.16
2023-05-05T09:40:59.599Z,99664.78
2023-05-05T09:43:26.767Z,99645.16
2023-05-05T09:46:07.956Z,99603.25
2023-05-05T09:48:35.136Z,99690.22
2023-05-05T09:51:02.216Z,99528.56
2023-05-05T09:53:40.247Z,99552.50
2023-05-05T09:56:08.244Z,99574.88
2023-05-05T09:58:35.215Z,99444.44
2023-05-05T10:01:02.217Z,99452.84
2023-05-05T10:03:31.436Z,99460.31
2023-05-05T10:06:01.115Z,99554.84
2023-05-05T10:08:33.710Z,99486.38
2023-05-05T10:11:06.928Z,99405.66
2023-05-05T10:13:38.209Z,99407.31
2023-05-05T10:16:09.229Z,99457.69
2023-05-05T10:18:39.667Z,99476.13
2023-05-05T10:21:07.795Z,99419.28
2023-05-05T10:23:43.709Z,99315.97
2023-05-05T10:26:14.284Z,99381.34
2023-05-05T10:29:01.817Z,99403.34
2023-05-05T10:31:47.267Z,99419.16
2023-05-05T10:35:03.109Z,99340.56
2023-05-05T10:37:31.162Z,99330.63
2023-05-05T10:39:59.385Z,99282.59
2023-05-05T10:42:27.792Z,99327.06
2023-05-05T10:44:54.786Z,99312.28
2023-05-05T10:47:24.351Z,99272.84
2023-05-05T10:50:21.676Z,99269.47
2023-05-05T10:53:13.140Z,99232.38
2023-05-05T10:55:52.016Z,99227.56
2023-05-05T10:58:51.640Z,99174.19
2023-05-05T11:01:36.588Z,99205.41
2023-05-05T11:04:23.931Z,99223.81
2023-05-05T11:07:11.835Z,99269.06
2023-05-05T11:09:56.151Z,99278.44
2023-05-05T11:12:23.235Z,99261.28
2023-05-05T11:15:28.299Z,99239.28
2023-05-05T11:18:05.718Z,99123.50
2023-05-05T11:20:37.669Z,99072.84
2023-05-05T11:23:04.988Z,99152.16
2023-05-05T11:25:36.166Z,99089.78
2023-05-05T11:28:22.849Z,99142.41
2023-05-05T11:30:58.873Z,99175.81
2023-05-05T11:33:28.473Z,99180.78
2023-05-05T11:36:08.413Z,99230.16
2023-05-05T11:39:15.941Z,99112.38
2023-05-05T11:42:10.750Z,99077.88
2023-05-05T11:44:38.360Z,99085.69
2023-05-05T11:47:05.560Z,99070.41
2023-05-05T11:49:39.754Z,99144.34
2023-05-05T11:52:12.461Z,99119.59
2023-05-05T11:54:47.837Z,98984.59
2023-05-05T11:57:17.744Z,99040.72
2023-05-05T12:00:02.302Z,98888.84
2023-05-05T12:02:30.473Z,98997.03
2023-05-05T12:04:59.499Z,98942.00
2023-05-05T12:07:31.874Z,98982.13
2023-05-05T12:09:59.216Z,99018.88
2023-05-05T12:12:40.264Z,98980.81
2023-05-05T12:15:09.254Z,98948.72
2023-05-05T12:17:39.663Z,98903.44
2023-05-05T12:20:08.897Z,98887.75
2023-05-05T12:22:36.361Z,98932.69
2023-05-05T12:25:08.290Z,98938.00
2023-05-05T12:27:35.628Z,98880.63
2023-05-05T12:30:17.910Z,98901.91
2023-05-05T12:32:46.446Z,98883.97
2023-05-05T12:35:14.069Z,98920.44
2023-05-05T12:37:41.651Z,98945.13
2023-05-05T12:40:48.233Z,98941.13
2023-05-05T12:43:34.865Z,98938.00
2023-05-05T12:46:11.154Z,98913.69
2023-05-05T12:48:40.644Z,98942.88
2023-05-05T12:51:18.756Z,98930.84
2023-05-05T12:54:06.728Z,98868.16
2023-05-05T12:56:35.849Z,98890.13
2023-05-05T12:59:10.824Z,98931.50
2023-05-05T13:01:50.787Z,98892.28
2023-05-05T13:04:19.081Z,98873.84
2023-05-05T13:06:54.028Z,98839.59
2023-05-05T13:09:29.760Z,98844.31
2023-05-05T13:12:01.860Z,98788.91
2023-05-05T13:14:30.650Z,98731.94
2023-05-05T13:16:58.223Z,98624.84
2023-05-05T13:19:25.239Z,98641.09
2023-05-05T13:21:56.655Z,98646.25
2023-05-05T13:24:37.988Z,98590.56
2023-05-05T13:27:09.838Z,98574.31
2023-05-05T13:29:36.931Z,98626.31
2023-05-05T13:32:04.020Z,98612.44
2023-05-05T13:34:31.043Z,98576.00
2023-05-05T13:36:58.142Z,98610.53
2023-05-05T13:39:25.218Z,98634.00
2023-05-05T13:41:52.267Z,98600.22
2023-05-05T13:44:19.295Z,98598.09
2023-05-05T13:46:46.477Z,98657.84
2023-05-05T13:49:13.971Z,98660.81
2023-05-05T13:51:41.100Z,98695.41
2023-05-05T13:54:08.185Z,98701.56
2023-05-05T13:56:35.368Z,98712.41
2023-05-05T13:59:02.573Z,98766.69
2023-05-05T14:01:30.332Z,98749.47
2023-05-05T14:03:58.091Z,98707.81
2023-05-05T14:06:26.091Z,98606.59
2023-05-05T14:08:53.546Z,98608.69
2023-05-05T14:11:20.886Z,98662.94
2023-05-05T14:13:48.218Z,98684.16
2023-05-05T14:16:15.530Z,98650.13
2023-05-05T14:18:42.712Z,98658.94
2023-05-05T14:21:09.910Z,98690.22
2023-05-05T14:23:37.087Z,98675.00
2023-05-05T14:26:04.210Z,98642.53
2023-05-05T14:28:31.237Z,98672.59
2023-05-05T14:30:58.349Z,98681.88
2023-05-05T14:33:25.583Z,98723.19
2023-05-05T14:35:53.093Z,98751.78
2023-05-05T14:38:20.212Z,98764.56
2023-05-05T14:40:47.297Z,98774.56
2023-05-05T14:43:14.440Z,98818.88
2023-05-05T14:45:41.547Z,98876.00
2023-05-05T14:48:08.706Z,98813.69
2023-05-05T14:50:35.999Z,98816.88
2023-05-05T14:53:03.342Z,98796.59
2023-05-05T14:55:30.391Z,98810.09
2023-05-05T14:57:57.384Z,98854.72
2023-05-05T15:00:26.603Z,98863.28
2023-05-05T15:02:53.700Z,98909.34
2023-05-05T15:05:20.845Z,98975.81
2023-05-05T15:07:48.014Z,98951.75
2023-05-05T15:10:15.143Z,98986.53
2023-05-05T15:12:42.978Z,98945.56
2023-05-05T15:15:10.750Z,98982.34
2023-05-05T15:17:38.998Z,98984.66
2023-05-05T15:20:07.096Z,99007.72
2023-05-05T15:22:34.501Z,99061.22
2023-05-05T15:25:01.702Z,99127.94
2023-05-05T15:27:30.048Z,99134.69
2023-05-05T15:29:57.080Z,99046.38
2023-05-05T15:32:24.194Z,99033.97
2023-05-05T15:34:51.252Z,99035.00
2023-05-05T15:37:18.233Z,99082.22
2023-05-05T15:39:45.271Z,99085.63
2023-05-05T15:42:12.620Z,99153.81
2023-05-05T15:44:40.197Z,99276.22
2023-05-05T15:47:08.002Z,99469.47
2023-05-05T15:49:35.990Z,99574.84
2023-05-05T15:52:03.517Z,99667.22
2023-05-05T15:54:30.963Z,99736.81
2023-05-05T15:56:58.608Z,99799.38
2023-05-05T15:59:26.487Z,99837.09
2023-05-05T16:01:53.602Z,99889.31
2023-05-05T16:04:21.090Z,99929.78
2023-05-05T16:06:48.160Z,99962.34
2023-05-05T16:09:15.130Z,99980.00
2023-05-05T16:11:42.318Z,100002.13
2023-05-05T16:14:09.498Z,100027.97
2023-05-05T16:16:36.478Z,100036.59
2023-05-05T16:19:03.662Z,100070.19
2023-05-05T16:21:31.020Z,100095.63
2023-05-05T16:23:58.050Z,100136.44
2023-05-05T16:26:25.050Z,100152.78
2023-05-05T16:28:52.627Z,100172.63
2023-05-05T16:31:19.658Z,100193.94
2023-05-05T16:33:46.770Z,100226.03
2023-05-05T16:36:14.291Z,100228.53
2023-05-05T16:38:41.641Z,100250.81
2023-05-05T16:41:08.659Z,100271.31
2023-05-05T16:43:38.788Z,100270.44
2023-05-05T16:46:06.868Z,100302.19
2023-05-05T16:48:34.036Z,100308.75
2023-05-05T16:51:20.244Z,100298.06
2023-05-05T16:53:49.021Z,100305.16
2023-05-05T16:56:16.440Z,100286.56
2023-05-05T16:58:43.418Z,100270.34
2023-05-05T17:01:10.850Z,100271.25
2023-05-05T17:03:39.115Z,100280.06
2023-05-05T17:06:06.678Z,100284.69
2023-05-05T17:08:34.032Z,100306.06
2023-05-05T17:11:01.466Z,100352.50
2023-05-05T17:13:28.902Z,100377.13
2023-05-05T17:15:57.435Z,100393.88
2023-05-05T17:18:25.924Z,100372.72
2023-05-05T17:20:53.086Z,100400.41
2023-05-05T17:23:37.459Z,100394.53
2023-05-05T17:26:05.339Z,100419.19
2023-05-05T17:28:32.777Z,100409.41
2023-05-05T17:31:01.534Z,100390.66
2023-05-05T17:33:44.786Z,100392.19
2023-05-05T17:39:11.550Z,100363.31
2023-05-05T17:41:38.943Z,100346.66
2023-05-05T17:44:06.027Z,100336.09
2023-05-05T17:46:33.004Z,100341.31
2023-05-05T17:49:00.633Z,100361.44
2023-05-05T17:51:28.313Z,100366.91
2023-05-05T17:53:55.468Z,100403.31
2023-05-05T17:56:22.466Z,100409.53
2023-05-05T17:58:49.914Z,100418.47
2023-05-05T18:01:24.979Z,100424.75
2023-05-05T18:03:52.776Z,100443.28
2023-05-05T18:06:19.875Z,100454.94
2023-05-05T18:08:46.914Z,100477.41
2023-05-05T18:11:13.971Z,100473.94
2023-05-05T18:13:41.411Z,100503.47
2023-05-05T18:16:09.054Z,100514.19
2023-05-05T18:18:39.221Z,100532.06
2023-05-05T18:21:06.828Z,100560.53
2023-05-05T18:23:34.340Z,100561.44
2023-05-05T18:26:01.771Z,100548.84
2023-05-05T18:28:29.161Z,100529.16
2023-05-05T18:30:56.864Z,100517.69
2023-05-05T18:33:24.257Z,100507.16
2023-05-05T18:35:52.055Z,100523.06
2023-05-05T18:38:19.712Z,100512.63
2023-05-05T18:40:47.319Z,100522.44
2023-05-05T18:43:14.922Z,100520.66
2023-05-05T18:45:42.463Z,100511.94
2023-05-05T18:48:09.957Z,100521.88
2023-05-05T18:50:37.722Z,100542.38
2023-05-05T18:53:05.155Z,100554.00
2023-05-05T18:55:32.580Z,100576.41
2023-05-05T18:57:59.942Z,100588.84
2023-05-05T19:00:27.342Z,100601.34
2023-05-05T19:02:54.788Z,100611.16
2023-05-05T19:05:22.385Z,100619.19
2023-05-05T19:07:49.736Z,100644.09
2023-05-05T19:10:17.399Z,100646.88
2023-05-05T19:12:44.671Z,100660.31
2023-05-05T19:15:13.301Z,100676.34
2023-05-05T19:17:40.422Z,100688.00
2023-05-05T19:20:08.913Z,100691.53
2023-05-05T19:22:35.945Z,100695.19
2023-05-05T19:25:03.851Z,100706.78
2023-05-05T19:27:33.913Z,100714.81
2023-05-05T19:30:01.408Z,100723.78
2023-05-05T19:32:28.536Z,100736.34
2023-05-05T19:34:55.935Z,100747.97
2023-05-05T19:37:26.539Z,100775.69
2023-05-05T19:39:53.895Z,100800.56
2023-05-05T19:42:23.660Z,100820.13
2023-05-05T19:44:51.157Z,100833.50
2023-05-05T19:47:18.294Z,100847.81
2023-05-05T19:49:45.791Z,100874.50
2023-05-05T19:52:13.301Z,100885.19
2023-05-05T19:54:40.382Z,100906.53
2023-05-05T19:57:07.587Z,100912.78
2023-05-05T19:59:35.101Z,100929.72
2023-05-05T20:02:02.649Z,100923.47
2023-05-05T20:04:30.050Z,100935.94
2023-05-05T20:06:57.441Z,100946.59
2023-05-05T20:09:24.425Z,100956.41
2023-05-05T20:11:51.876Z,100959.13
2023-05-05T20:14:19.376Z,100976.03
2023-05-05T20:16:46.523Z,100979.59
2023-05-05T20:19:14.055Z,100993.84
2023-05-05T20:21:41.272Z,101004.53
2023-05-05T20:24:09.517Z,101017.00
2023-05-05T20:26:36.922Z,101022.34
2023-05-05T20:29:04.420Z,101027.66
2023-05-05T20:31:31.833Z,101036.56
2023-05-05T20:33:59.381Z,101048.09
2023-05-05T20:36:27.051Z,101051.63
2023-05-05T20:38:54.494Z,101056.97
2023-05-05T20:41:22.214Z,101067.63
2023-05-05T20:43:49.630Z,101078.28
2023-05-05T20:46:17.235Z,101089.84
2023-05-05T20:48:44.775Z,101090.72
2023-05-05T20:51:11.955Z,101108.50
2023-05-05T20:53:39.321Z,101114.72
2023-05-05T20:56:08.628Z,101116.50
2023-05-05T20:58:36.156Z,101122.72
2023-05-05T21:01:03.589Z,101122.72
2023-05-05T21:03:30.629Z,101131.59
2023-05-05T21:05:58.008Z,101136.94
2023-05-05T21:08:25.410Z,101136.03
2023-05-05T21:10:52.785Z,101131.59
2023-05-05T21:13:20.233Z,101134.25
2023-05-05T21:15:50.383Z,101133.38
2023-05-05T21:18:18.029Z,101135.16
2023-05-05T21:20:45.413Z,101136.94
2023-05-05T21:23:12.808Z,101132.47
2023-05-05T21:25:40.060Z,101131.59
2023-05-05T21:28:07.487Z,101130.69
2023-05-05T21:30:34.471Z,101130.69
2023-05-05T21:33:01.971Z,101120.91
2023-05-05T21:35:29.011Z,101120.91
2023-05-05T21:37:56.393Z,101104.91
2023-05-05T21:40:23.404Z,101106.66
2023-05-05T21:42:50.408Z,101108.44
2023-05-05T21:45:17.801Z,101096.91
2023-05-05T21:47:44.867Z,101095.13
2023-05-05T21:50:12.686Z,101084.44
2023-05-05T21:52:40.273Z,101082.66
2023-05-05T21:55:08.059Z,101078.16
2023-05-05T21:57:35.529Z,101088.75
2023-05-05T22:00:05.633Z,101097.53
2023-05-05T22:02:33.609Z,101102.84
2023-05-05T22:05:01.005Z,101112.59
2023-05-05T22:07:28.378Z,101116.06
2023-05-05T22:09:55.757Z,101123.19
2023-05-05T22:12:23.147Z,101131.19
2023-05-05T22:14:50.560Z,101128.47
2023-05-05T22:17:17.959Z,101139.09
2023-05-05T22:19:45.334Z,101139.00
2023-05-05T22:22:12.799Z,101149.66
2023-05-05T22:24:40.174Z,101165.53
2023-05-05T22:27:07.138Z,101170.88
2023-05-05T22:29:34.522Z,101181.56
2023-05-05T22:32:01.924Z,101177.06
2023-05-05T22:34:28.954Z,101178.81
2023-05-05T22:36:57.220Z,101173.41
2023-05-05T22:39:27.416Z,101182.19
2023-05-05T22:41:54.764Z,101190.22
2023-05-05T22:44:22.123Z,101197.25
2023-05-05T22:46:49.616Z,101196.41
2023-05-05T22:49:17.150Z,101199.06
2023-05-05T22:51:44.601Z,101191.06
2023-05-05T22:54:12.003Z,101202.56
2023-05-05T22:56:39.676Z,101195.47
2023-05-05T22:59:07.224Z,101196.28
2023-05-05T23:01:34.868Z,101192.78
2023-05-05T23:04:02.371Z,101184.81
2023-05-05T23:06:29.928Z,101184.78
2023-05-05T23:08:57.314Z,101182.13
2023-05-05T23:11:25.689Z,101180.31
2023-05-05T23:13:53.440Z,101178.50
2023-05-05T23:16:20.902Z,101164.28
2023-05-05T23:18:48.325Z,101159.78
2023-05-05T23:21:15.761Z,101156.19
2023-05-05T23:23:43.210Z,101151.78
2023-05-05T23:26:10.777Z,101149.13
2023-05-05T23:28:38.175Z,101151.81
2023-05-05T23:31:05.755Z,101151.78
2023-05-05T23:33:33.263Z,101149.09
2023-05-05T23:36:00.708Z,101142.84
2023-05-05T23:38:28.158Z,101139.31
2023-05-05T23:40:55.703Z,101142.84
2023-05-05T23:43:23.074Z,101141.88
2023-05-05T23:45:50.548Z,101136.53
2023-05-05T23:48:18.027Z,101146.28
2023-05-05T23:50:45.367Z,101148.03
2023-05-05T23:53:12.789Z,101143.53
2023-05-05T23:55:40.243Z,101135.50
2023-05-05T23:58:07.647Z,101143.53
